createdAt,value
2023-04-02T00:01:28.366Z,6.42
2023-04-02T00:04:02.978Z,6.42
2023-04-02T00:06:32.201Z,6.41
2023-04-02T00:09:15.324Z,6.39
2023-04-02T00:11:44.268Z,6.36
2023-04-02T00:14:21.606Z,6.33
2023-04-02T00:16:48.741Z,6.30
2023-04-02T00:19:27.988Z,6.28
2023-04-02T00:21:56.372Z,6.23
2023-04-02T00:24:23.228Z,6.19
2023-04-02T00:26:51.606Z,6.17
2023-04-02T00:29:18.965Z,6.15
2023-04-02T00:31:47.706Z,6.12
2023-04-02T00:34:26.375Z,6.07
2023-04-02T00:36:53.943Z,6.02
2023-04-02T00:39:26.834Z,6.00
2023-04-02T00:42:04.318Z,5.99
2023-04-02T00:44:33.620Z,5.98
2023-04-02T00:47:04.566Z,5.99
2023-04-02T00:49:35.303Z,5.97
2023-04-02T00:52:04.408Z,5.97
2023-04-02T00:54:37.080Z,5.96
2023-04-02T00:57:04.183Z,5.95
2023-04-02T00:59:32.929Z,5.94
2023-04-02T01:02:03.868Z,5.93
2023-04-02T01:04:35.890Z,5.90
2023-04-02T01:07:06.057Z,5.88
2023-04-02T01:09:51.855Z,5.84
2023-04-02T01:12:18.890Z,5.78
2023-04-02T01:14:45.975Z,5.74
2023-04-02T01:17:26.051Z,5.69
2023-04-02T01:20:01.045Z,5.64
2023-04-02T01:22:35.653Z,5.59
2023-04-02T01:25:06.094Z,5.53
2023-04-02T01:27:53.192Z,5.45
2023-04-02T01:30:20.860Z,5.40
2023-04-02T01:32:49.192Z,5.37
2023-04-02T01:35:16.914Z,5.34
2023-04-02T01:37:52.882Z,5.33
2023-04-02T01:40:22.990Z,5.33
2023-04-02T01:42:50.045Z,5.31
2023-04-02T01:45:19.244Z,5.29
2023-04-02T01:47:46.313Z,5.27
2023-04-02T01:50:19.403Z,5.25
2023-04-02T01:52:51.040Z,5.22
2023-04-02T01:55:20.755Z,5.21
2023-04-02T01:57:50.666Z,5.18
2023-04-02T02:00:18.647Z,5.15
2023-04-02T02:02:48.474Z,5.13
2023-04-02T02:05:17.826Z,5.10
2023-04-02T02:07:46.151Z,5.06
2023-04-02T02:10:16.891Z,5.01
2023-04-02T02:12:44.453Z,4.95
2023-04-02T02:15:16.572Z,4.92
2023-04-02T02:17:44.326Z,4.89
2023-04-02T02:20:12.496Z,4.83
2023-04-02T02:22:43.014Z,4.77
2023-04-02T02:25:11.554Z,4.73
2023-04-02T02:27:51.271Z,4.70
2023-04-02T02:30:30.090Z,4.67
2023-04-02T02:33:03.233Z,4.65
2023-04-02T02:35:33.187Z,4.62
2023-04-02T02:38:26.931Z,4.58
2023-04-02T02:40:58.488Z,4.55
2023-04-02T02:43:26.049Z,4.53
2023-04-02T02:45:54.968Z,4.52
2023-04-02T02:48:23.680Z,4.49
2023-04-02T02:50:51.017Z,4.44
2023-04-02T02:53:21.527Z,4.39
2023-04-02T02:55:50.723Z,4.36
2023-04-02T02:58:26.805Z,4.35
2023-04-02T03:01:03.195Z,4.33
2023-04-02T03:03:33.727Z,4.31
2023-04-02T03:06:06.924Z,4.27
2023-04-02T03:08:43.647Z,4.22
2023-04-02T03:11:23.489Z,4.20
2023-04-02T03:13:54.236Z,4.20
2023-04-02T03:16:28.762Z,4.19
2023-04-02T03:19:02.250Z,4.19
2023-04-02T03:21:35.753Z,4.17
2023-04-02T03:24:31.972Z,4.15
2023-04-02T03:27:03.302Z,4.15
2023-04-02T03:29:32.840Z,4.16
2023-04-02T03:32:03.466Z,4.19
2023-04-02T03:34:36.965Z,4.23
2023-04-02T03:37:14.256Z,4.28
2023-04-02T03:39:43.866Z,4.31
2023-04-02T03:42:18.183Z,4.33
2023-04-02T03:44:54.872Z,4.33
2023-04-02T03:47:31.773Z,4.32
2023-04-02T03:50:07.082Z,4.30
2023-04-02T03:52:36.378Z,4.30
2023-04-02T03:55:25.642Z,4.29
2023-04-02T03:57:52.998Z,4.33
2023-04-02T04:00:26.097Z,4.35
2023-04-02T04:02:57.076Z,4.34
2023-04-02T04:05:28.486Z,4.34
2023-04-02T04:08:01.722Z,4.33
2023-04-02T04:10:29.448Z,4.28
2023-04-02T04:13:02.231Z,4.27
2023-04-02T04:15:40.236Z,4.24
2023-04-02T04:18:29.386Z,4.24
2023-04-02T04:20:57.975Z,4.27
2023-04-02T04:23:40.598Z,4.31
2023-04-02T04:26:12.453Z,4.34
2023-04-02T04:29:05.089Z,4.35
2023-04-02T04:31:40.020Z,4.39
2023-04-02T04:34:11.060Z,4.45
2023-04-02T04:36:47.528Z,4.49
2023-04-02T04:39:17.967Z,4.51
2023-04-02T04:41:48.234Z,4.55
2023-04-02T04:44:22.605Z,4.61
2023-04-02T04:46:56.455Z,4.67
2023-04-02T04:49:27.059Z,4.76
2023-04-02T04:51:56.261Z,4.81
2023-04-02T04:54:25.654Z,4.87
2023-04-02T04:57:00.595Z,4.92
2023-04-02T04:59:47.309Z,5.00
2023-04-02T05:02:22.339Z,5.07
2023-04-02T05:04:51.227Z,5.13
2023-04-02T05:07:21.152Z,5.21
2023-04-02T05:09:55.048Z,5.29
2023-04-02T05:12:41.343Z,5.36
2023-04-02T05:15:11.049Z,5.42
2023-04-02T05:17:47.436Z,5.46
2023-04-02T05:20:16.003Z,5.50
2023-04-02T05:23:02.294Z,5.55
2023-04-02T05:25:30.065Z,5.61
2023-04-02T05:27:59.777Z,5.68
2023-04-02T05:30:26.934Z,5.73
2023-04-02T05:33:18.446Z,5.78
2023-04-02T05:35:47.964Z,5.86
2023-04-02T05:38:22.612Z,5.94
2023-04-02T05:41:04.484Z,6.02
2023-04-02T05:43:33.677Z,6.10
2023-04-02T05:46:04.945Z,6.17
2023-04-02T05:48:34.947Z,6.24
2023-04-02T05:51:05.084Z,6.33
2023-04-02T05:53:37.345Z,6.40
2023-04-02T05:56:13.298Z,6.49
2023-04-02T05:58:45.644Z,6.56
2023-04-02T06:01:28.855Z,6.64
2023-04-02T06:04:06.581Z,6.73
2023-04-02T06:06:43.667Z,6.82
2023-04-02T06:09:18.903Z,6.87
2023-04-02T06:11:49.147Z,6.92
2023-04-02T06:14:18.024Z,6.96
2023-04-02T06:16:46.684Z,7.04
2023-04-02T06:19:25.606Z,7.12
2023-04-02T06:21:58.729Z,7.20
2023-04-02T06:24:27.661Z,7.28
2023-04-02T06:26:57.570Z,7.35
2023-04-02T06:29:39.541Z,7.44
2023-04-02T06:32:09.425Z,7.51
2023-04-02T06:34:40.592Z,7.56
2023-04-02T06:37:15.155Z,7.64
2023-04-02T06:39:42.564Z,7.73
2023-04-02T06:42:21.313Z,7.79
2023-04-02T06:45:20.568Z,7.86
2023-04-02T06:47:55.737Z,7.94
2023-04-02T06:50:50.994Z,8.02
2023-04-02T06:53:27.817Z,8.04
2023-04-02T06:56:02.725Z,8.01
2023-04-02T06:58:31.099Z,7.98
2023-04-02T07:00:58.691Z,7.99
2023-04-02T07:03:34.040Z,8.04
2023-04-02T07:06:13.089Z,8.06
2023-04-02T07:08:39.972Z,8.06
2023-04-02T07:11:06.951Z,8.09
2023-04-02T07:13:33.773Z,8.12
2023-04-02T07:16:00.984Z,8.15
2023-04-02T07:18:29.542Z,8.18
2023-04-02T07:20:57.365Z,8.15
2023-04-02T07:23:25.591Z,8.10
2023-04-02T07:25:53.053Z,8.07
2023-04-02T07:28:22.010Z,8.03
2023-04-02T07:30:50.443Z,8.06
2023-04-02T07:33:19.126Z,8.05
2023-04-02T07:35:46.807Z,8.03
2023-04-02T07:38:13.743Z,8.02
2023-04-02T07:40:40.795Z,8.00
2023-04-02T07:43:08.223Z,7.98
2023-04-02T07:45:35.454Z,7.93
2023-04-02T07:48:06.344Z,7.93
2023-04-02T07:50:33.555Z,8.03
2023-04-02T07:53:00.769Z,8.08
2023-04-02T07:55:27.697Z,7.98
2023-04-02T07:57:55.458Z,8.01
2023-04-02T08:00:23.360Z,8.09
2023-04-02T08:02:50.930Z,8.17
2023-04-02T08:05:18.389Z,8.25
2023-04-02T08:07:51.883Z,8.34
2023-04-02T08:10:18.942Z,8.39
2023-04-02T08:12:45.995Z,8.44
2023-04-02T08:15:14.787Z,8.50
2023-04-02T08:17:42.604Z,8.56
2023-04-02T08:20:19.587Z,8.64
2023-04-02T08:22:46.819Z,8.74
2023-04-02T08:25:13.744Z,8.84
2023-04-02T08:27:41.518Z,9.01
2023-04-02T08:30:08.676Z,9.26
2023-04-02T08:32:35.672Z,9.45
2023-04-02T08:35:02.792Z,9.60
2023-04-02T08:37:30.033Z,9.73
2023-04-02T08:39:56.890Z,9.90
2023-04-02T08:42:23.859Z,10.04
2023-04-02T08:45:24.981Z,10.17
2023-04-02T08:47:56.158Z,10.35
2023-04-02T08:50:23.174Z,10.45
2023-04-02T08:52:51.342Z,10.50
2023-04-02T08:55:22.228Z,10.57
2023-04-02T08:57:53.900Z,10.60
2023-04-02T09:00:26.980Z,10.66
2023-04-02T09:03:10.581Z,10.75
2023-04-02T09:05:39.452Z,10.85
2023-04-02T09:08:15.818Z,10.91
2023-04-02T09:10:47.681Z,10.88
2023-04-02T09:13:25.439Z,10.90
2023-04-02T09:15:56.174Z,10.91
2023-04-02T09:18:23.290Z,10.83
2023-04-02T09:20:50.553Z,10.71
2023-04-02T09:23:22.232Z,10.57
2023-04-02T09:26:03.555Z,10.39
2023-04-02T09:28:31.662Z,10.26
2023-04-02T09:31:11.665Z,10.17
2023-04-02T09:33:46.545Z,10.14
2023-04-02T09:36:36.802Z,10.09
2023-04-02T09:39:06.353Z,10.08
2023-04-02T09:41:36.731Z,10.15
2023-04-02T09:44:12.905Z,10.24
2023-04-02T09:46:52.342Z,10.37
2023-04-02T09:49:22.365Z,10.40
2023-04-02T09:52:09.674Z,10.43
2023-04-02T09:54:43.176Z,10.44
2023-04-02T09:57:23.335Z,10.45
2023-04-02T10:02:44.784Z,10.48
2023-04-02T10:05:26.607Z,10.46
2023-04-02T10:08:15.907Z,10.43
2023-04-02T10:10:44.188Z,10.45
2023-04-02T10:13:20.955Z,10.50
2023-04-02T10:16:03.566Z,10.56
2023-04-02T10:18:40.752Z,10.68
2023-04-02T10:21:08.315Z,10.87
2023-04-02T10:23:35.778Z,11.03
2023-04-02T10:26:11.738Z,11.27
2023-04-02T10:28:51.271Z,11.49
2023-04-02T10:31:19.785Z,11.75
2023-04-02T10:33:48.819Z,11.95
2023-04-02T10:36:47.618Z,12.19
2023-04-02T10:39:33.420Z,12.43
2023-04-02T10:42:23.094Z,12.61
2023-04-02T10:44:50.036Z,12.90
2023-04-02T10:47:30.734Z,13.17
2023-04-02T10:50:16.077Z,13.37
2023-04-02T10:52:46.047Z,13.59
2023-04-02T10:55:16.016Z,13.73
2023-04-02T10:57:44.192Z,13.85
2023-04-02T11:00:11.403Z,13.91
2023-04-02T11:02:44.285Z,13.94
2023-04-02T11:05:16.501Z,13.81
2023-04-02T11:07:55.740Z,13.78
2023-04-02T11:10:23.328Z,13.95
2023-04-02T11:12:54.952Z,14.06
2023-04-02T11:15:22.210Z,14.19
2023-04-02T11:17:49.333Z,14.35
2023-04-02T11:20:35.567Z,14.45
2023-04-02T11:23:09.889Z,14.69
2023-04-02T11:25:37.271Z,14.81
2023-04-02T11:28:24.651Z,14.86
2023-04-02T11:30:52.831Z,15.01
2023-04-02T11:33:35.764Z,15.18
2023-04-02T11:36:03.471Z,15.27
2023-04-02T11:38:42.855Z,15.14
2023-04-02T11:41:09.751Z,15.07
2023-04-02T11:43:36.774Z,15.08
2023-04-02T11:46:16.034Z,14.98
2023-04-02T11:48:43.236Z,14.89
2023-04-02T11:51:22.407Z,14.93
2023-04-02T11:53:51.470Z,14.82
2023-04-02T11:56:20.771Z,14.81
2023-04-02T11:59:03.276Z,14.59
2023-04-02T12:01:39.659Z,14.27
2023-04-02T12:04:12.727Z,14.06
2023-04-02T12:06:46.432Z,13.78
2023-04-02T12:09:18.811Z,13.51
2023-04-02T12:11:47.094Z,13.44
2023-04-02T12:14:29.291Z,13.39
2023-04-02T12:16:56.487Z,13.27
2023-04-02T12:19:24.880Z,13.23
2023-04-02T12:21:52.541Z,13.14
2023-04-02T12:24:20.983Z,13.08
2023-04-02T12:26:47.899Z,13.09
2023-04-02T12:29:25.727Z,13.15
2023-04-02T12:31:56.888Z,13.24
2023-04-02T12:34:25.042Z,13.25
2023-04-02T12:36:55.206Z,13.27
2023-04-02T12:39:23.502Z,13.22
2023-04-02T12:41:51.532Z,13.15
2023-04-02T12:44:21.351Z,13.13
2023-04-02T12:46:49.325Z,13.10
2023-04-02T12:49:31.417Z,13.05
2023-04-02T12:52:01.335Z,13.01
2023-04-02T12:54:29.616Z,13.03
2023-04-02T12:57:16.445Z,13.06
2023-04-02T12:59:43.410Z,13.11
2023-04-02T13:02:21.173Z,13.13
2023-04-02T13:04:52.528Z,13.16
2023-04-02T13:07:21.114Z,13.22
2023-04-02T13:09:51.957Z,13.30
2023-04-02T13:12:39.162Z,13.43
2023-04-02T13:15:07.647Z,13.51
2023-04-02T13:17:48.377Z,13.57
2023-04-02T13:20:29.087Z,13.64
2023-04-02T13:22:56.099Z,13.68
2023-04-02T13:25:27.508Z,13.73
2023-04-02T13:27:54.478Z,13.77
2023-04-02T13:30:22.569Z,13.77
2023-04-02T13:32:49.532Z,13.69
2023-04-02T13:35:16.544Z,13.59
2023-04-02T13:37:43.317Z,13.53
2023-04-02T13:40:14.170Z,13.47
2023-04-02T13:42:42.031Z,13.42
2023-04-02T13:45:29.628Z,13.42
2023-04-02T13:48:01.415Z,13.43
2023-04-02T13:50:29.872Z,13.39
2023-04-02T13:52:58.016Z,13.36
2023-04-02T13:55:29.982Z,13.31
2023-04-02T13:57:57.242Z,13.36
2023-04-02T14:00:24.104Z,13.40
2023-04-02T14:02:53.637Z,13.42
2023-04-02T14:05:20.442Z,13.47
2023-04-02T14:08:02.233Z,13.52
2023-04-02T14:10:29.080Z,13.56
2023-04-02T14:12:59.205Z,13.54
2023-04-02T14:15:27.176Z,13.54
2023-04-02T14:18:00.436Z,13.56
2023-04-02T14:20:36.532Z,13.54
2023-04-02T14:23:20.061Z,13.54
2023-04-02T14:26:03.183Z,13.57
2023-04-02T14:28:37.707Z,13.60
2023-04-02T14:31:11.922Z,13.63
2023-04-02T14:33:38.780Z,13.65
2023-04-02T14:36:18.434Z,13.60
2023-04-02T14:38:52.697Z,13.52
2023-04-02T14:41:42.861Z,13.46
2023-04-02T14:44:10.899Z,13.32
2023-04-02T14:46:38.503Z,13.25
2023-04-02T14:49:08.773Z,13.17
2023-04-02T14:51:37.775Z,13.09
2023-04-02T14:54:04.633Z,12.99
2023-04-02T14:56:38.651Z,12.89
2023-04-02T14:59:15.563Z,12.83
2023-04-02T15:01:46.421Z,12.76
2023-04-02T15:04:31.862Z,12.71
2023-04-02T15:07:05.113Z,12.66
2023-04-02T15:09:41.518Z,12.62
2023-04-02T15:12:38.071Z,12.59
2023-04-02T15:15:08.127Z,12.57
2023-04-02T15:17:35.756Z,12.56
2023-04-02T15:20:12.081Z,12.57
2023-04-02T15:22:47.196Z,12.60
2023-04-02T15:25:29.186Z,12.62
2023-04-02T15:28:11.385Z,12.62
2023-04-02T15:30:42.743Z,12.62
2023-04-02T15:33:33.032Z,12.59
2023-04-02T15:36:00.007Z,12.56
2023-04-02T15:38:37.574Z,12.47
2023-04-02T15:41:14.046Z,12.30
2023-04-02T15:43:40.879Z,12.11
2023-04-02T15:46:23.166Z,11.85
2023-04-02T15:48:52.895Z,11.50
2023-04-02T15:51:38.473Z,11.19
2023-04-02T15:54:37.861Z,10.91
2023-04-02T15:57:10.786Z,10.69
2023-04-02T15:59:53.456Z,10.53
2023-04-02T16:02:45.530Z,10.37
2023-04-02T16:05:17.243Z,10.21
2023-04-02T16:08:06.708Z,10.12
2023-04-02T16:10:42.098Z,10.03
2023-04-02T16:13:28.756Z,9.97
2023-04-02T16:16:04.812Z,9.91
2023-04-02T16:18:50.892Z,9.82
2023-04-02T16:21:22.273Z,9.76
2023-04-02T16:23:50.015Z,9.69
2023-04-02T16:26:26.294Z,9.59
2023-04-02T16:28:59.266Z,9.50
2023-04-02T16:31:32.129Z,9.43
2023-04-02T16:34:17.830Z,9.38
2023-04-02T16:37:10.059Z,9.31
2023-04-02T16:39:55.746Z,9.25
2023-04-02T16:42:23.915Z,9.22
2023-04-02T16:45:03.013Z,9.20
2023-04-02T16:47:49.299Z,9.15
2023-04-02T16:50:31.738Z,9.08
2023-04-02T16:53:21.513Z,8.96
2023-04-02T16:55:51.528Z,8.87
2023-04-02T16:58:48.569Z,8.83
2023-04-02T17:01:21.386Z,8.76
2023-04-02T17:06:39.112Z,8.72
2023-04-02T17:09:15.226Z,8.71
2023-04-02T17:11:59.196Z,8.70
2023-04-02T17:14:41.806Z,8.69
2023-04-02T17:17:11.030Z,8.69
2023-04-02T17:19:39.393Z,8.69
2023-04-02T17:22:07.172Z,8.70
2023-04-02T17:24:42.518Z,8.69
2023-04-02T17:27:12.721Z,8.69
2023-04-02T17:29:42.842Z,8.68
2023-04-02T17:32:20.536Z,8.67
2023-04-02T17:34:47.424Z,8.66
2023-04-02T17:37:33.276Z,8.63
2023-04-02T17:40:03.661Z,8.59
2023-04-02T17:42:49.381Z,8.54
2023-04-02T17:45:39.525Z,8.51
2023-04-02T17:48:15.756Z,8.50
2023-04-02T17:50:42.671Z,8.51
2023-04-02T17:53:28.248Z,8.51
2023-04-02T17:56:13.774Z,8.51
2023-04-02T17:58:58.820Z,8.51
2023-04-02T18:01:44.766Z,8.52
2023-04-02T18:04:26.722Z,8.52
2023-04-02T18:06:53.620Z,8.52
2023-04-02T18:09:20.474Z,8.52
2023-04-02T18:11:47.407Z,8.50
2023-04-02T18:14:32.924Z,8.47
2023-04-02T18:17:18.566Z,8.45
2023-04-02T18:19:57.997Z,8.43
2023-04-02T18:22:31.100Z,8.42
2023-04-02T18:25:10.534Z,8.41
2023-04-02T18:27:40.339Z,8.38
2023-04-02T18:30:13.734Z,8.33
2023-04-02T18:32:59.032Z,8.28
2023-04-02T18:35:33.856Z,8.23
2023-04-02T18:38:03.957Z,8.17
2023-04-02T18:40:39.917Z,8.09
2023-04-02T18:43:06.855Z,8.05
2023-04-02T18:45:51.195Z,8.03
2023-04-02T18:48:31.575Z,8.00
2023-04-02T18:50:59.946Z,7.97
2023-04-02T18:53:28.839Z,7.94
2023-04-02T18:55:55.792Z,7.91
2023-04-02T18:58:26.735Z,7.88
2023-04-02T19:00:55.016Z,7.84
2023-04-02T19:03:32.337Z,7.82
2023-04-02T19:06:03.351Z,7.82
2023-04-02T19:08:39.299Z,7.81
2023-04-02T19:11:16.893Z,7.80
2023-04-02T19:13:44.625Z,7.79
2023-04-02T19:16:14.328Z,7.79
2023-04-02T19:18:49.724Z,7.81
2023-04-02T19:21:26.904Z,7.82
2023-04-02T19:24:06.441Z,7.80
2023-04-02T19:26:44.549Z,7.80
2023-04-02T19:29:20.937Z,7.81
2023-04-02T19:31:47.916Z,7.83
2023-04-02T19:34:27.195Z,7.84
2023-04-02T19:36:57.630Z,7.86
2023-04-02T19:39:27.246Z,7.88
2023-04-02T19:42:10.662Z,7.88
2023-04-02T19:44:40.808Z,7.89
2023-04-02T19:47:08.665Z,7.89
2023-04-02T19:49:35.681Z,7.90
2023-04-02T19:52:02.900Z,7.90
2023-04-02T19:54:29.827Z,7.91
2023-04-02T19:56:56.561Z,7.91
2023-04-02T19:59:23.351Z,7.90
2023-04-02T20:01:50.126Z,7.90
2023-04-02T20:04:16.984Z,7.91
2023-04-02T20:06:43.999Z,7.92
2023-04-02T20:09:10.773Z,7.93
2023-04-02T20:11:37.935Z,7.93
2023-04-02T20:14:05.762Z,7.92
2023-04-02T20:16:33.332Z,7.91
2023-04-02T20:19:00.156Z,7.91
2023-04-02T20:21:27.368Z,7.92
2023-04-02T20:23:54.342Z,7.92
2023-04-02T20:26:22.146Z,7.91
2023-04-02T20:28:49.099Z,7.92
2023-04-02T20:31:17.320Z,7.91
2023-04-02T20:33:44.342Z,7.92
2023-04-02T20:36:12.966Z,7.92
2023-04-02T20:38:39.720Z,7.93
2023-04-02T20:41:07.227Z,7.92
2023-04-02T20:43:35.494Z,7.91
2023-04-02T20:46:04.918Z,7.90
2023-04-02T20:48:32.372Z,7.86
2023-04-02T20:51:00.337Z,7.83
2023-04-02T20:53:31.190Z,7.82
2023-04-02T20:56:05.872Z,7.82
2023-04-02T20:58:33.773Z,7.82
2023-04-02T21:01:11.692Z,7.83
2023-04-02T21:03:39.448Z,7.83
2023-04-02T21:06:11.382Z,7.84
2023-04-02T21:08:38.335Z,7.84
2023-04-02T21:11:05.614Z,7.83
2023-04-02T21:13:33.087Z,7.83
2023-04-02T21:16:00.262Z,7.84
2023-04-02T21:18:27.288Z,7.83
2023-04-02T21:21:02.325Z,7.82
2023-04-02T21:23:29.680Z,7.80
2023-04-02T21:25:57.958Z,7.80
2023-04-02T21:28:25.324Z,7.79
2023-04-02T21:30:52.431Z,7.76
2023-04-02T21:33:19.230Z,7.72
2023-04-02T21:35:46.129Z,7.68
2023-04-02T21:38:12.960Z,7.63
2023-04-02T21:40:39.703Z,7.61
2023-04-02T21:43:06.596Z,7.61
2023-04-02T21:45:33.422Z,7.61
2023-04-02T21:48:00.456Z,7.62
2023-04-02T21:50:27.611Z,7.62
2023-04-02T21:52:54.729Z,7.61
2023-04-02T21:55:21.638Z,7.62
2023-04-02T21:57:48.461Z,7.61
2023-04-02T22:00:15.440Z,7.60
2023-04-02T22:02:42.407Z,7.60
2023-04-02T22:05:09.369Z,7.59
2023-04-02T22:07:36.152Z,7.59
2023-04-02T22:10:03.141Z,7.59
2023-04-02T22:12:29.889Z,7.58
2023-04-02T22:14:56.766Z,7.57
2023-04-02T22:17:23.497Z,7.53
2023-04-02T22:19:50.296Z,7.51
2023-04-02T22:22:17.049Z,7.49
2023-04-02T22:24:43.883Z,7.48
2023-04-02T22:27:12.166Z,7.47
2023-04-02T22:29:39.029Z,7.45
2023-04-02T22:32:05.884Z,7.43
2023-04-02T22:34:32.626Z,7.40
2023-04-02T22:36:59.502Z,7.37
2023-04-02T22:39:26.277Z,7.35
2023-04-02T22:41:53.043Z,7.32
2023-04-02T22:44:19.846Z,7.26
2023-04-02T22:46:46.625Z,7.22
2023-04-02T22:49:18.374Z,7.18
2023-04-02T22:51:45.639Z,7.13
2023-04-02T22:54:12.497Z,7.09
2023-04-02T22:56:39.274Z,7.05
2023-04-02T22:59:06.190Z,7.02
2023-04-02T23:01:34.768Z,6.99
2023-04-02T23:04:01.675Z,6.95
2023-04-02T23:06:28.606Z,6.93
2023-04-02T23:08:55.791Z,6.92
2023-04-02T23:11:24.267Z,6.89
2023-04-02T23:13:52.244Z,6.88
2023-04-02T23:16:19.371Z,6.85
2023-04-02T23:18:47.556Z,6.82
2023-04-02T23:21:15.377Z,6.81
2023-04-02T23:23:42.815Z,6.80
2023-04-02T23:26:11.019Z,6.78
2023-04-02T23:28:39.443Z,6.76
2023-04-02T23:31:07.488Z,6.76
2023-04-02T23:33:34.897Z,6.75
2023-04-02T23:36:09.480Z,6.76
2023-04-02T23:38:36.328Z,6.76
2023-04-02T23:41:03.271Z,6.76
2023-04-02T23:43:30.305Z,6.77
2023-04-02T23:45:57.180Z,6.78
2023-04-02T23:48:24.174Z,6.78
2023-04-02T23:50:50.953Z,6.79
2023-04-02T23:53:18.210Z,6.79
2023-04-02T23:55:45.391Z,6.81
2023-04-02T23:58:12.251Z,6.81
